Terminal Aerodrome Forecast
Issued by NWS

Home | Current Version | Previous Version | Text Only | Print | Product List | Glossary On
Versions: 1 2 3 4 5 6 7 8 9 10 11 12 13 14 15 16 17 18 19 20 21 22 23
673
FTUS44 KLZK 181720
TAFLLQ
TAF
KLLQ 181720Z 1818/1918 06004KT 6SM RA BR SCT008 BKN015
      TEMPO 1818/1821 4SM -RA BR BKN005
     FM190000 05003KT 2SM -RA BR BKN005 OVC008
     FM190800 07002KT 4SM -SHRA BR OVC003
      TEMPO 1908/1912 4SM -TSRA BKN003CB
     FM191600 26003KT 4SM BR OVC003=

USA.gov is the U.S. government's official web portal to all federal, state and local government web resources and services.